Time;durP1;ratioP1;P1;durP2;ratioP2;P2;SDS_P1;SDS_P2;PMS_P1;PMS_P2;Temp;Humidity;BMP_temperature;BMP_pressure;BME280_temperature;BME280_humidity;BME280_pressure;Samples;Min_cycle;Max_cycle;Signal;HPM_P1;HPM_P2
2022/09/30 00:00:51;;;;;;;0.00;0.00;;;;;;;;;;12272321;19;20015;-66
2022/09/30 00:04:51;;;;;;;0.00;0.00;;;;;;;;;;12269729;19;20005;-66
2022/09/30 00:08:52;;;;;;;0.00;0.00;;;;;;;;;;12273924;19;20504;-65
2022/09/30 00:12:52;;;;;;;0.00;0.00;;;;;;;;;;12272371;19;19994;-66
2022/09/30 00:16:53;;;;;;;0.00;0.00;;;;;;;;;;12270872;19;20175;-66
2022/09/30 00:20:53;;;;;;;0.00;0.00;;;;;;;;;;12270457;19;19995;-65
2022/09/30 00:24:54;;;;;;;0.00;0.00;;;;;;;;;;12268803;19;20311;-65
2022/09/30 00:28:57;;;;;;;0.00;0.00;;;;;;;;;;12268395;19;20038;-66
2022/09/30 00:32:57;;;;;;;0.00;0.00;;;;;;;;;;12274406;19;20021;-67
2022/09/30 00:37:00;;;;;;;0.00;0.00;;;;;;;;;;12267992;19;19987;-66
2022/09/30 00:41:02;;;;;;;0.00;0.00;;;;;;;;;;12270557;19;20007;-67
2022/09/30 00:45:04;;;;;;;0.00;0.00;;;;;;;;;;12274723;19;20006;-66
2022/09/30 00:49:05;;;;;;;;;;;;;;;;;;12272659;19;20049;-66
2022/09/30 00:53:24;;;;;;;0.00;0.00;;;;;;;;;;12274683;19;19919;-65
2022/09/30 00:57:24;;;;;;;0.00;0.00;;;;;;;;;;12272124;19;20066;-66
2022/09/30 01:01:24;;;;;;;0.00;0.00;;;;;;;;;;12266031;19;19979;-66
2022/09/30 01:05:25;;;;;;;0.00;0.00;;;;;;;;;;12270694;19;20211;-66
2022/09/30 01:09:26;;;;;;;0.00;0.00;;;;;;;;;;12269101;19;20132;-66
2022/09/30 01:13:27;;;;;;;0.00;0.00;;;;;;;;;;12266439;19;19983;-66
2022/09/30 01:17:46;;;;;;;0.00;0.00;;;;;;;;;;12263894;19;20023;-66
2022/09/30 01:22:05;;;;;;;0.00;0.00;;;;;;;;;;12264674;19;20111;-67
2022/09/30 01:26:23;;;;;;;0.00;0.00;;;;;;;;;;12272051;19;19999;-66
2022/09/30 01:30:42;;;;;;;0.00;0.00;;;;;;;;;;12279191;19;20219;-67
2022/09/30 01:35:03;;;;;;;0.00;0.00;;;;;;;;;;12282075;19;20340;-66
2022/09/30 01:39:06;;;;;;;0.00;0.00;;;;;;;;;;12277074;19;20382;-66
2022/09/30 01:43:10;;;;;;;0.00;0.00;;;;;;;;;;12279657;19;19998;-67
2022/09/30 01:47:18;;;;;;;0.00;0.00;;;;;;;;;;12278146;19;20243;-66
2022/09/30 01:51:31;;;;;;;0.00;0.00;;;;;;;;;;12276696;19;20024;-67
2022/09/30 01:55:36;;;;;;;0.00;0.00;;;;;;;;;;12282903;19;19999;-66
2022/09/30 01:59:41;;;;;;;0.00;0.00;;;;;;;;;;12280834;19;20278;-66
2022/09/30 02:03:46;;;;;;;0.00;0.00;;;;;;;;;;12274345;19;20054;-66
2022/09/30 02:07:59;;;;;;;0.00;0.00;;;;;;;;;;12276825;19;20007;-65
2022/09/30 02:12:02;;;;;;;0.00;0.00;;;;;;;;;;12276128;19;19991;-66
2022/09/30 02:16:11;;;;;;;0.00;0.00;;;;;;;;;;12279949;19;19998;-65
2022/09/30 02:20:14;;;;;;;0.00;0.00;;;;;;;;;;12276401;19;20014;-66
2022/09/30 02:24:16;;;;;;;0.00;0.00;;;;;;;;;;12281155;19;20042;-66
2022/09/30 02:28:20;;;;;;;0.00;0.00;;;;;;;;;;12278432;19;20245;-65
2022/09/30 02:32:25;;;;;;;0.00;0.00;;;;;;;;;;12277010;19;20007;-66
2022/09/30 02:36:29;;;;;;;0.00;0.00;;;;;;;;;;12274769;19;19987;-66
2022/09/30 02:40:35;;;;;;;0.00;0.00;;;;;;;;;;12272455;19;20107;-66
2022/09/30 02:44:37;;;;;;;0.00;0.00;;;;;;;;;;12274270;19;20003;-66
2022/09/30 02:48:43;;;;;;;0.00;0.00;;;;;;;;;;12277445;19;20023;-66
2022/09/30 02:52:50;;;;;;;0.00;0.00;;;;;;;;;;12272998;19;19991;-67
2022/09/30 02:56:53;;;;;;;0.00;0.00;;;;;;;;;;12278945;19;19998;-66
2022/09/30 03:00:54;;;;;;;0.00;0.00;;;;;;;;;;12272752;19;20002;-66
2022/09/30 03:04:54;;;;;;;0.00;0.00;;;;;;;;;;12271753;19;19990;-66
2022/09/30 03:08:55;;;;;;;0.00;0.00;;;;;;;;;;12272866;19;20022;-66
2022/09/30 03:13:07;;;;;;;0.00;0.00;;;;;;;;;;12278695;19;20784;-66
2022/09/30 03:17:26;;;;;;;0.00;0.00;;;;;;;;;;12273826;19;20208;-66
2022/09/30 03:21:45;;;;;;;0.00;0.00;;;;;;;;;;12275836;19;19999;-66
2022/09/30 03:25:51;;;;;;;0.00;0.00;;;;;;;;;;12273759;19;20157;-66
2022/09/30 03:30:01;;;;;;;0.00;0.00;;;;;;;;;;12271621;19;19990;-68
2022/09/30 03:34:01;;;;;;;0.00;0.00;;;;;;;;;;12276939;19;20006;-66
2022/09/30 03:38:11;;;;;;;0.00;0.00;;;;;;;;;;12272437;19;19994;-67
2022/09/30 03:42:16;;;;;;;0.00;0.00;;;;;;;;;;12270245;19;19999;-67
2022/09/30 03:46:22;;;;;;;0.00;0.00;;;;;;;;;;12272951;19;20019;-67
2022/09/30 03:50:24;;;;;;;0.00;0.00;;;;;;;;;;12267495;19;20021;-67
2022/09/30 03:54:25;;;;;;;0.00;0.00;;;;;;;;;;12276859;19;20062;-67
2022/09/30 03:58:25;;;;;;;0.00;0.00;;;;;;;;;;12272600;19;20054;-67
2022/09/30 04:02:26;;;;;;;0.00;0.00;;;;;;;;;;12267701;19;19987;-66
2022/09/30 04:06:26;;;;;;;0.00;0.00;;;;;;;;;;12269445;19;20021;-66
2022/09/30 04:10:27;;;;;;;0.00;0.00;;;;;;;;;;12268377;19;19986;-67
2022/09/30 04:14:27;;;;;;;0.00;0.00;;;;;;;;;;12272452;19;19999;-67
2022/09/30 04:18:30;;;;;;;0.00;0.00;;;;;;;;;;12272913;19;20555;-68
2022/09/30 04:22:30;;;;;;;0.00;0.00;;;;;;;;;;12268869;19;20489;-67
2022/09/30 04:26:30;;;;;;;0.00;0.00;;;;;;;;;;12271955;19;19999;-67
2022/09/30 04:30:31;;;;;;;0.00;0.00;;;;;;;;;;12268475;19;19991;-67
2022/09/30 04:34:31;;;;;;;0.00;0.00;;;;;;;;;;12272729;19;20005;-67
2022/09/30 04:38:32;;;;;;;0.00;0.00;;;;;;;;;;12271666;19;20433;-67
2022/09/30 04:42:32;;;;;;;0.00;0.00;;;;;;;;;;12271325;19;20500;-67
2022/09/30 04:46:35;;;;;;;0.00;0.00;;;;;;;;;;12267487;19;19995;-67
2022/09/30 04:50:35;;;;;;;0.00;0.00;;;;;;;;;;12272902;19;20438;-66
2022/09/30 04:54:36;;;;;;;0.00;0.00;;;;;;;;;;12273115;19;20006;-67
2022/09/30 04:58:37;;;;;;;0.00;0.00;;;;;;;;;;12270337;19;20525;-67
2022/09/30 05:02:37;;;;;;;0.00;0.00;;;;;;;;;;12269142;19;19998;-67
2022/09/30 05:06:40;;;;;;;0.00;0.00;;;;;;;;;;12281499;19;20214;-67
2022/09/30 05:10:41;;;;;;;0.00;0.00;;;;;;;;;;12275880;19;20524;-67
2022/09/30 05:14:41;;;;;;;0.00;0.00;;;;;;;;;;12277075;19;20006;-67
2022/09/30 05:18:44;;;;;;;0.00;0.00;;;;;;;;;;12281421;19;20003;-67
2022/09/30 05:22:45;;;;;;;0.00;0.00;;;;;;;;;;12275530;19;20486;-67
2022/09/30 05:26:45;;;;;;;0.00;0.00;;;;;;;;;;12277904;19;20002;-67
2022/09/30 05:30:46;;;;;;;0.00;0.00;;;;;;;;;;12276485;19;19994;-67
2022/09/30 05:34:46;;;;;;;0.00;0.00;;;;;;;;;;12285046;19;20461;-67
2022/09/30 05:38:49;;;;;;;0.00;0.00;;;;;;;;;;12281760;19;20077;-67
2022/09/30 05:42:49;;;;;;;0.00;0.00;;;;;;;;;;12278197;19;20107;-66
2022/09/30 05:46:50;;;;;;;0.00;0.00;;;;;;;;;;12278404;19;20128;-67
2022/09/30 05:50:59;;;;;;;0.00;0.00;;;;;;;;;;12276024;19;20382;-66
2022/09/30 05:55:00;;;;;;;0.00;0.00;;;;;;;;;;12282046;19;20026;-68
2022/09/30 05:59:00;;;;;;;0.00;0.00;;;;;;;;;;12280516;19;20004;-67
2022/09/30 06:03:01;;;;;;;0.00;0.00;;;;;;;;;;12276184;19;20214;-67
2022/09/30 06:07:01;;;;;;;0.00;0.00;;;;;;;;;;12279448;19;20018;-67
2022/09/30 06:11:07;;;;;;;0.00;0.00;;;;;;;;;;12276777;19;20446;-66
2022/09/30 06:15:08;;;;;;;0.00;0.00;;;;;;;;;;12277122;19;20119;-67
2022/09/30 06:19:08;;;;;;;0.00;0.00;;;;;;;;;;12272631;19;19995;-67
2022/09/30 06:23:09;;;;;;;0.00;0.00;;;;;;;;;;12278222;19;20016;-68
2022/09/30 06:27:10;;;;;;;0.00;0.00;;;;;;;;;;12278496;19;20220;-67
2022/09/30 06:31:10;;;;;;;0.00;0.00;;;;;;;;;;12274828;19;20509;-67
2022/09/30 06:35:11;;;;;;;0.00;0.00;;;;;;;;;;12278654;19;19999;-67
2022/09/30 06:39:11;;;;;;;0.00;0.00;;;;;;;;;;12275199;19;20167;-67
2022/09/30 06:43:13;;;;;;;0.00;0.00;;;;;;;;;;12277988;19;20045;-66
2022/09/30 06:47:13;;;;;;;0.00;0.00;;;;;;;;;;12275688;19;20015;-66
2022/09/30 06:51:13;;;;;;;0.00;0.00;;;;;;;;;;12273034;19;19986;-66
2022/09/30 06:55:14;;;;;;;0.00;0.00;;;;;;;;;;12279052;19;20007;-67
2022/09/30 06:59:17;;;;;;;0.00;0.00;;;;;;;;;;12274940;19;20030;-66
2022/09/30 07:03:23;;;;;;;0.00;0.00;;;;;;;;;;12272393;19;20042;-67
2022/09/30 07:07:23;;;;;;;0.00;0.00;;;;;;;;;;12277419;19;20058;-68
2022/09/30 07:11:24;;;;;;;0.00;0.00;;;;;;;;;;12273434;19;20050;-68
2022/09/30 07:15:24;;;;;;;0.00;0.00;;;;;;;;;;12278144;19;20465;-67
2022/09/30 07:19:25;;;;;;;0.00;0.00;;;;;;;;;;12274970;19;19999;-65
2022/09/30 07:23:25;;;;;;;0.00;0.00;;;;;;;;;;12275111;19;20523;-65
2022/09/30 07:27:26;;;;;;;0.00;0.00;;;;;;;;;;12269107;19;20012;-66
2022/09/30 07:31:27;;;;;;;0.00;0.00;;;;;;;;;;12276719;19;20231;-65
2022/09/30 07:35:27;;;;;;;0.00;0.00;;;;;;;;;;12271370;19;20118;-66
2022/09/30 07:39:28;;;;;;;0.00;0.00;;;;;;;;;;12270191;19;20453;-66
2022/09/30 07:43:37;;;;;;;0.00;0.00;;;;;;;;;;12272087;19;20002;-66
2022/09/30 07:47:37;;;;;;;0.00;0.00;;;;;;;;;;12271110;19;19994;-66
2022/09/30 07:51:39;;;;;;;0.00;0.00;;;;;;;;;;12273152;19;20003;-67
2022/09/30 07:55:39;;;;;;;0.00;0.00;;;;;;;;;;12270085;19;20048;-65
2022/09/30 07:59:40;;;;;;;0.00;0.00;;;;;;;;;;12275025;19;20054;-65
2022/09/30 08:03:43;;;;;;;0.00;0.00;;;;;;;;;;12273032;19;20010;-65
2022/09/30 08:07:43;;;;;;;0.00;0.00;;;;;;;;;;12270068;19;20072;-65
2022/09/30 08:11:44;;;;;;;0.00;0.00;;;;;;;;;;12272899;19;20010;-65
2022/09/30 08:15:44;;;;;;;0.00;0.00;;;;;;;;;;12270903;19;20006;-65
2022/09/30 08:19:44;;;;;;;0.00;0.00;;;;;;;;;;12266219;19;19979;-65
2022/09/30 08:23:45;;;;;;;0.00;0.00;;;;;;;;;;12270675;19;20010;-65
2022/09/30 08:27:45;;;;;;;0.00;0.00;;;;;;;;;;12274507;19;20131;-65
2022/09/30 08:31:45;;;;;;;0.00;0.00;;;;;;;;;;12270057;19;19998;-65
2022/09/30 08:35:46;;;;;;;0.00;0.00;;;;;;;;;;12268017;19;19997;-66
2022/09/30 08:39:47;;;;;;;0.00;0.00;;;;;;;;;;12268393;19;20003;-66
2022/09/30 08:44:06;;;;;;;0.00;0.00;;;;;;;;;;12267222;19;19998;-64
2022/09/30 08:48:06;;;;;;;0.00;0.00;;;;;;;;;;12272529;19;20103;-60
2022/09/30 08:52:11;;;;;;;0.00;0.00;;;;;;;;;;12268488;19;20002;-61
2022/09/30 08:56:19;;;;;;;0.00;0.00;;;;;;;;;;12271235;19;20191;-60
2022/09/30 09:00:20;;;;;;;0.00;0.00;;;;;;;;;;12271256;19;20013;-59
2022/09/30 09:04:21;;;;;;;0.00;0.00;;;;;;;;;;12268151;19;19999;-59
2022/09/30 09:08:21;;;;;;;0.00;0.00;;;;;;;;;;12270531;19;20002;-59
2022/09/30 09:12:21;;;;;;;0.00;0.00;;;;;;;;;;12270392;19;20006;-59
2022/09/30 09:16:28;;;;;;;0.00;0.00;;;;;;;;;;12270100;19;20028;-60
2022/09/30 09:20:35;;;;;;;0.00;0.00;;;;;;;;;;12267083;19;20011;-60
2022/09/30 09:24:42;;;;;;;0.00;0.00;;;;;;;;;;12270631;19;20003;-60
2022/09/30 09:28:42;;;;;;;0.00;0.00;;;;;;;;;;12265448;19;20127;-60
2022/09/30 09:32:47;;;;;;;0.00;0.00;;;;;;;;;;12270792;19;20131;-59
2022/09/30 09:36:53;;;;;;;0.00;0.00;;;;;;;;;;12265811;19;20005;-59
2022/09/30 09:41:07;;;;;;;0.00;0.00;;;;;;;;;;12266690;19;20013;-59
2022/09/30 09:45:13;;;;;;;0.00;0.00;;;;;;;;;;12266862;19;20214;-60
2022/09/30 09:49:19;;;;;;;0.00;0.00;;;;;;;;;;12270514;19;20002;-60
2022/09/30 09:53:19;;;;;;;0.00;0.00;;;;;;;;;;12276108;19;20398;-60
2022/09/30 09:57:30;;;;;;;0.00;0.00;;;;;;;;;;12283712;19;19998;-60
2022/09/30 10:01:32;;;;;;;0.00;0.00;;;;;;;;;;12281058;19;20018;-60
2022/09/30 10:05:38;;;;;;;0.00;0.00;;;;;;;;;;12280829;19;20024;-60
2022/09/30 10:09:39;;;;;;;0.00;0.00;;;;;;;;;;12275049;19;20018;-59
2022/09/30 10:13:41;;;;;;;0.00;0.00;;;;;;;;;;12278982;19;20034;-60
2022/09/30 10:17:42;;;;;;;0.00;0.00;;;;;;;;;;12273279;19;20007;-60
2022/09/30 10:21:42;;;;;;;0.00;0.00;;;;;;;;;;12272509;19;20002;-69
2022/09/30 10:25:55;;;;;;;0.00;0.00;;;;;;;;;;12276610;19;20054;-66
2022/09/30 10:29:55;;;;;;;;;;;;;;;;;;12275032;19;20383;-64
2022/09/30 10:33:59;;;;;;;0.00;0.00;;;;;;;;;;12275391;19;20035;-65
2022/09/30 10:37:59;;;;;;;0.00;0.00;;;;;;;;;;12280260;19;20023;-63
2022/09/30 10:42:09;;;;;;;0.00;0.00;;;;;;;;;;12277345;19;20062;-64
2022/09/30 10:46:09;;;;;;;0.00;0.00;;;;;;;;;;12274117;19;19991;-63
2022/09/30 10:50:12;;;;;;;0.00;0.00;;;;;;;;;;12275671;19;19995;-63
2022/09/30 10:54:32;;;;;;;0.00;0.00;;;;;;;;;;12272868;19;20199;-63
2022/09/30 10:58:34;;;;;;;0.10;0.03;;;;;;;;;;12277659;19;20651;-62
2022/09/30 11:02:37;;;;;;;0.00;0.00;;;;;;;;;;12268366;19;19995;-63
2022/09/30 11:09:16;;;;;;;0.00;0.00;;;;;;;;;;12329364;19;20713;-62
2022/09/30 11:13:25;;;;;;;0.00;0.00;;;;;;;;;;12334299;19;20014;-62
2022/09/30 11:17:32;;;;;;;0.00;0.00;;;;;;;;;;12323043;19;20076;-62
2022/09/30 11:21:45;;;;;;;0.00;0.00;;;;;;;;;;12334584;19;20006;-62
2022/09/30 11:25:55;;;;;;;0.00;0.00;;;;;;;;;;12330916;19;20100;-62
2022/09/30 11:30:02;;;;;;;0.00;0.00;;;;;;;;;;12326542;19;20104;-64
